Weather History for Warsaw, IN

Change the Weather History Date:

Friday, June 13, 2014

  Actual Average Record
Temperature  
Mean Temperature 59 °F -  
Max Temperature 68 °F 80 °F 95 °F (1956)
Min Temperature 48 °F 58 °F 41 °F (1963)
Degree Days  
Heating Degree Days 6    
Growing Degree Days 9 (Base 50)    
Moisture  
Dew Point 48 °F    
Average Humidity 62    
Maximum Humidity 88    
Minimum Humidity 37    
Precipitation  
Precipitation 0.00 in - - ()
Sea Level Pressure  
Sea Level Pressure 29.94 in    
Wind  
Wind Speed 9 mph (NW)    
Max Wind Speed 17 mph    
Max Gust Speed 26 mph    
Visibility 10 miles    
Events      
Averages and records for this station are not official NWS values.
T = Trace of Precipitation, MM = Missing Value Source: NWS Daily Summary

Daily Weather History Graph

Daily Weather History Graph

Search for Another Location

Airport:

Trip Planner

Search our weather history database for the weather conditions in past years. The results will help you decide how hot, cold, wet, or windy it might be!

Date:

Astronomy

Jun. 13, 2014 Rise Set
Actual Time 6:09 AM EDT 9:17 PM EDT
Civil Twilight 5:35 AM EDT 9:51 PM EDT
Nautical Twilight 4:52 AM EDT 10:34 PM EDT
Astronomical Twilight 4:01 AM EDT 11:25 PM EDT
Moon 9:46 PM EDT (6/13) 6:49 AM EDT (6/13)
Length of Visible Light 16h 15m
Length of Day
15h 07m
Full, 100% of the Moon is Illuminated
Jun 13
Full
Jun 19
Last Quarter
Jun 27
New
Jul 5
First Quarter
Jul 12
Full

Hourly Weather History & Observations

Time (EDT) Temp. Dew Point Humidity Pressure Visibility Wind Dir Wind Speed Gust Speed Precip Events Conditions
12:15 AM 68.0 °F 60.8 °F 78% 29.83 in 10.0 mi West 8.1 mph - N/A   Overcast
12:35 AM 68.0 °F 60.8 °F 78% 29.84 in 10.0 mi West 9.2 mph - N/A   Overcast
12:55 AM 68.0 °F 60.8 °F 78% 29.84 in 10.0 mi West 8.1 mph - N/A   Scattered Clouds
1:15 AM 64.4 °F 60.8 °F 88% 29.84 in 10.0 mi WNW 8.1 mph - N/A   Scattered Clouds
1:35 AM 64.4 °F 59.0 °F 83% 29.84 in 10.0 mi West 8.1 mph - N/A   Scattered Clouds
2:15 AM 62.6 °F 59.0 °F 88% 29.85 in 10.0 mi WNW 6.9 mph - N/A   Mostly Cloudy
2:35 AM 62.6 °F 57.2 °F 82% 29.84 in 10.0 mi WNW 6.9 mph - N/A   Clear
2:55 AM 62.6 °F 55.4 °F 77% 29.84 in 10.0 mi NW 8.1 mph - N/A   Clear
3:15 AM 62.6 °F 53.6 °F 72% 29.84 in 10.0 mi NW 8.1 mph - N/A   Scattered Clouds
3:35 AM 62.6 °F 53.6 °F 72% 29.84 in 10.0 mi NW 5.8 mph - N/A   Overcast
3:55 AM 62.6 °F 53.6 °F 72% 29.85 in 10.0 mi WNW 5.8 mph - N/A   Overcast
4:15 AM 62.6 °F 51.8 °F 68% 29.85 in 10.0 mi NW 9.2 mph - N/A   Mostly Cloudy
4:35 AM 60.8 °F 51.8 °F 72% 29.86 in 10.0 mi NW 8.1 mph - N/A   Mostly Cloudy
4:55 AM 60.8 °F 51.8 °F 72% 29.86 in 10.0 mi NNW 9.2 mph - N/A   Scattered Clouds
5:15 AM 60.8 °F 50.0 °F 68% 29.87 in 10.0 mi NNW 11.5 mph - N/A   Mostly Cloudy
5:35 AM 59.0 °F 50.0 °F 72% 29.88 in 10.0 mi NNW 5.8 mph - N/A   Mostly Cloudy
5:55 AM 59.0 °F 50.0 °F 72% 29.89 in 10.0 mi NW 3.5 mph - N/A   Scattered Clouds
6:15 AM 57.2 °F 50.0 °F 77% 29.89 in 10.0 mi NNW 5.8 mph - N/A   Scattered Clouds
6:35 AM 57.2 °F 50.0 °F 77% 29.91 in 10.0 mi NW 4.6 mph - N/A   Scattered Clouds
6:55 AM 57.2 °F 50.0 °F 77% 29.91 in 10.0 mi NNW 4.6 mph - N/A   Clear
7:15 AM 55.4 °F 50.0 °F 82% 29.92 in 10.0 mi NW 5.8 mph - N/A   Clear
7:35 AM 59.0 °F 50.0 °F 72% 29.92 in 10.0 mi NW 6.9 mph - N/A   Clear
7:55 AM 59.0 °F 50.0 °F 72% 29.93 in 10.0 mi NW 8.1 mph - N/A   Clear
8:15 AM 59.0 °F 50.0 °F 72% 29.93 in 10.0 mi NW 9.2 mph - N/A   Clear
8:35 AM 60.8 °F 48.2 °F 63% 29.94 in 10.0 mi NW 11.5 mph - N/A   Clear
8:55 AM 60.8 °F 48.2 °F 63% 29.94 in 10.0 mi NW 12.7 mph 16.1 mph N/A   Clear
9:15 AM 60.8 °F 48.2 °F 63% 29.94 in 10.0 mi NW 11.5 mph - N/A   Clear
9:35 AM 62.6 °F 48.2 °F 59% 29.95 in 10.0 mi NW 12.7 mph - N/A   Clear
9:55 AM 62.6 °F 46.4 °F 55% 29.94 in 10.0 mi WNW 13.8 mph 18.4 mph N/A   Clear
10:15 AM 62.6 °F 46.4 °F 55% 29.95 in 10.0 mi NNW 9.2 mph 18.4 mph N/A   Clear
10:35 AM 62.6 °F 46.4 °F 55% 29.95 in 10.0 mi NW 12.7 mph 19.6 mph N/A   Scattered Clouds
10:55 AM 64.4 °F 48.2 °F 56% 29.95 in 10.0 mi NNW 9.2 mph - N/A   Scattered Clouds
11:15 AM 64.4 °F 48.2 °F 56% 29.95 in 10.0 mi WNW 11.5 mph 16.1 mph N/A   Mostly Cloudy
11:35 AM 64.4 °F 48.2 °F 56% 29.96 in 10.0 mi WNW 15.0 mph 20.7 mph N/A   Scattered Clouds
11:55 AM 64.4 °F 48.2 °F 56% 29.96 in 10.0 mi NW 13.8 mph 19.6 mph N/A   Scattered Clouds
12:15 PM 64.4 °F 48.2 °F 56% 29.96 in 10.0 mi WNW 11.5 mph 19.6 mph N/A   Scattered Clouds
12:35 PM 64.4 °F 48.2 °F 56% 29.96 in 10.0 mi WNW 16.1 mph - N/A   Scattered Clouds
12:55 PM 66.2 °F 48.2 °F 52% 29.96 in 10.0 mi WNW 16.1 mph - N/A   Scattered Clouds
1:15 PM 68.0 °F 48.2 °F 49% 29.97 in 10.0 mi WNW 15.0 mph 18.4 mph N/A   Mostly Cloudy
1:35 PM 68.0 °F 48.2 °F 49% 29.97 in 10.0 mi WNW 12.7 mph 21.9 mph N/A   Scattered Clouds
1:55 PM 68.0 °F 48.2 °F 49% 29.97 in 10.0 mi WNW 17.3 mph 23.0 mph N/A   Scattered Clouds
2:15 PM 68.0 °F 46.4 °F 46% 29.97 in 10.0 mi WNW 12.7 mph 24.2 mph N/A   Scattered Clouds
2:55 PM 68.0 °F 46.4 °F 46% 29.97 in 10.0 mi NW 13.8 mph 20.7 mph N/A   Clear
3:15 PM 68.0 °F 46.4 °F 46% 29.97 in 10.0 mi NW 16.1 mph 24.2 mph N/A   Clear
3:35 PM 68.0 °F 48.2 °F 49% 29.97 in 10.0 mi NW 17.3 mph - N/A   Clear
3:55 PM 68.0 °F 46.4 °F 46% 29.97 in 10.0 mi WNW 16.1 mph 24.2 mph N/A   Clear
4:15 PM 68.0 °F 44.6 °F 43% 29.97 in 10.0 mi NW 16.1 mph 25.3 mph N/A   Clear
4:35 PM 66.2 °F 42.8 °F 43% 29.97 in 10.0 mi NW 15.0 mph 24.2 mph N/A   Clear
5:15 PM 66.2 °F 41.0 °F 40% 29.98 in 10.0 mi NNW 12.7 mph 26.5 mph N/A   Clear
5:55 PM 68.0 °F 41.0 °F 37% 29.99 in 10.0 mi NW 15.0 mph 19.6 mph N/A   Clear
6:55 PM 64.4 °F 39.2 °F 40% 29.99 in 10.0 mi NW 9.2 mph - N/A   Clear
7:15 PM 64.4 °F 41.0 °F 42% 29.99 in 10.0 mi NNW 11.5 mph 16.1 mph N/A   Clear
7:35 PM 64.4 °F 37.4 °F 37% 30.00 in 10.0 mi NNW 13.8 mph 18.4 mph N/A   Clear
7:55 PM 64.4 °F 39.2 °F 40% 30.01 in 10.0 mi NW 11.5 mph 16.1 mph N/A   Clear
8:15 PM 62.6 °F 39.2 °F 42% 30.01 in 10.0 mi North 9.2 mph - N/A   Clear
8:35 PM 62.6 °F 39.2 °F 42% 30.02 in 10.0 mi NNW 9.2 mph - N/A   Clear
8:55 PM 60.8 °F 41.0 °F 48% 30.02 in 10.0 mi North 3.5 mph - N/A   Clear
9:15 PM 59.0 °F 39.2 °F 48% 30.02 in 10.0 mi Calm Calm - N/A   Clear
9:35 PM 55.4 °F 42.8 °F 63% 30.03 in 10.0 mi Calm Calm - N/A   Clear
9:55 PM 53.6 °F 42.8 °F 67% 30.04 in 10.0 mi Calm Calm - N/A   Clear
10:15 PM 53.6 °F 41.0 °F 62% 30.04 in 10.0 mi Calm Calm - N/A   Clear
10:35 PM 51.8 °F 44.6 °F 76% 30.05 in 10.0 mi Calm Calm - N/A   Clear
10:55 PM 50.0 °F 44.6 °F 82% 30.06 in 10.0 mi Calm Calm - N/A   Clear
11:15 PM 50.0 °F 44.6 °F 82% 30.06 in 10.0 mi Calm Calm - N/A   Clear
11:35 PM 50.0 °F 44.6 °F 82% 30.06 in 10.0 mi Calm Calm - N/A   Clear
11:55 PM 48.2 °F 44.6 °F 87% 30.06 in 10.0 mi Calm Calm - N/A   Clear